Time,TemperatureF,DewpointF,PressureIn,WindDirection,WindDirectionDegrees,WindSpeedMPH,WindSpeedGustMPH,Humidity,HourlyPrecipIn,Conditions,Clouds,dailyrainin,SoftwareType,DateUTC
2013-07-27 00:02:00,80.0,33.0,-100.00,WNW,287,5.0,9.0,18,0.00,,,0.00,,2013-07-27 00:02:00,
2013-07-27 00:12:00,80.0,33.0,-100.00,WNW,287,5.0,9.0,18,0.00,,,0.00,,2013-07-27 00:12:00,
2013-07-27 00:22:00,80.0,33.0,-100.00,WNW,287,5.0,9.0,18,0.00,,,0.00,,2013-07-27 00:22:00,
2013-07-27 00:32:00,80.0,33.0,-100.00,WNW,287,5.0,9.0,18,0.00,,,0.00,,2013-07-27 00:32:00,
2013-07-27 00:42:00,78.0,35.0,-100.00,WNW,283,4.0,8.0,21,0.00,,,0.00,,2013-07-27 00:42:00,
2013-07-27 01:12:00,78.0,35.0,-100.00,WNW,283,4.0,8.0,21,0.00,,,0.00,,2013-07-27 01:12:00,
2013-07-27 01:22:00,78.0,35.0,-100.00,WNW,283,4.0,8.0,21,0.00,,,0.00,,2013-07-27 01:22:00,
2013-07-27 01:32:00,78.0,35.0,-100.00,WNW,283,4.0,8.0,21,0.00,,,0.00,,2013-07-27 01:32:00,
2013-07-27 01:42:00,74.0,40.0,-100.00,East,100,1.0,7.0,29,0.00,,,0.00,,2013-07-27 01:42:00,
2013-07-27 02:12:00,74.0,40.0,-100.00,East,100,1.0,7.0,29,0.00,,,0.00,,2013-07-27 02:12:00,
2013-07-27 02:22:00,74.0,40.0,-100.00,East,100,1.0,7.0,29,0.00,,,0.00,,2013-07-27 02:22:00,
2013-07-27 02:32:00,74.0,40.0,-100.00,East,100,1.0,7.0,29,0.00,,,0.00,,2013-07-27 02:32:00,
2013-07-27 02:42:00,62.0,37.0,-100.00,South,181,5.0,5.0,39,0.00,,,0.00,,2013-07-27 02:42:00,
2013-07-27 03:33:00,62.0,37.0,-100.00,South,181,5.0,5.0,39,0.00,,,0.00,,2013-07-27 03:33:00,
2013-07-27 05:12:00,57.0,31.0,-100.00,South,174,5.0,6.0,37,0.00,,,0.00,,2013-07-27 05:12:00,
2013-07-27 05:22:00,57.0,31.0,-100.00,South,174,5.0,6.0,37,0.00,,,0.00,,2013-07-27 05:22:00,
2013-07-27 05:32:00,57.0,31.0,-100.00,South,174,5.0,6.0,37,0.00,,,0.00,,2013-07-27 05:32:00,
2013-07-27 05:42:00,61.0,33.0,-100.00,South,175,5.0,7.0,35,0.00,,,0.00,,2013-07-27 05:42:00,
2013-07-27 06:02:00,61.0,33.0,-100.00,South,175,5.0,7.0,35,0.00,,,0.00,,2013-07-27 06:02:00,
2013-07-27 06:12:00,61.0,33.0,-100.00,South,175,5.0,7.0,35,0.00,,,0.00,,2013-07-27 06:12:00,
2013-07-27 06:22:00,61.0,33.0,-100.00,South,175,5.0,7.0,35,0.00,,,0.00,,2013-07-27 06:22:00,
2013-07-27 06:33:00,61.0,33.0,-100.00,South,175,5.0,7.0,35,0.00,,,0.00,,2013-07-27 06:33:00,
2013-07-27 06:42:00,61.0,32.0,-100.00,South,170,5.0,6.0,34,0.00,,,0.00,,2013-07-27 06:42:00,
2013-07-27 07:02:00,61.0,32.0,-100.00,South,170,5.0,6.0,34,0.00,,,0.00,,2013-07-27 07:02:00,
2013-07-27 07:12:00,61.0,32.0,-100.00,South,170,5.0,6.0,34,0.00,,,0.00,,2013-07-27 07:12:00,
2013-07-27 07:22:00,61.0,32.0,-100.00,South,170,5.0,6.0,34,0.00,,,0.00,,2013-07-27 07:22:00,
2013-07-27 07:33:00,61.0,32.0,-100.00,South,170,5.0,6.0,34,0.00,,,0.00,,2013-07-27 07:33:00,
2013-07-27 07:42:00,60.0,31.0,-100.00,South,174,5.0,6.0,33,0.00,,,0.00,,2013-07-27 07:42:00,
2013-07-27 08:02:00,60.0,31.0,-100.00,South,174,5.0,6.0,33,0.00,,,0.00,,2013-07-27 08:02:00,
2013-07-27 08:12:00,60.0,31.0,-100.00,South,174,5.0,6.0,33,0.00,,,0.00,,2013-07-27 08:12:00,
2013-07-27 08:22:00,60.0,31.0,-100.00,South,174,5.0,6.0,33,0.00,,,0.00,,2013-07-27 08:22:00,
2013-07-27 08:32:00,60.0,31.0,-100.00,South,174,5.0,6.0,33,0.00,,,0.00,,2013-07-27 08:32:00,
2013-07-27 08:42:00,61.0,30.0,-100.00,South,174,5.0,6.0,31,0.00,,,0.00,,2013-07-27 08:42:00,
2013-07-27 09:12:00,61.0,30.0,-100.00,South,174,5.0,6.0,31,0.00,,,0.00,,2013-07-27 09:12:00,
2013-07-27 09:22:00,61.0,30.0,-100.00,South,174,5.0,6.0,31,0.00,,,0.00,,2013-07-27 09:22:00,
2013-07-27 09:33:00,61.0,30.0,-100.00,South,174,5.0,6.0,31,0.00,,,0.00,,2013-07-27 09:33:00,
2013-07-27 09:42:00,61.0,29.0,-100.00,South,175,5.0,7.0,30,0.00,,,0.00,,2013-07-27 09:42:00,
2013-07-27 10:12:00,61.0,29.0,-100.00,South,175,5.0,7.0,30,0.00,,,0.00,,2013-07-27 10:12:00,
2013-07-27 10:22:00,61.0,29.0,-100.00,South,175,5.0,7.0,30,0.00,,,0.00,,2013-07-27 10:22:00,
2013-07-27 10:32:00,61.0,29.0,-100.00,South,175,5.0,7.0,30,0.00,,,0.00,,2013-07-27 10:32:00,
2013-07-27 10:42:00,61.0,31.0,-100.00,South,176,5.0,6.0,32,0.00,,,0.00,,2013-07-27 10:42:00,
2013-07-27 11:02:00,61.0,31.0,-100.00,South,176,5.0,6.0,32,0.00,,,0.00,,2013-07-27 11:02:00,
2013-07-27 11:12:00,61.0,31.0,-100.00,South,176,5.0,6.0,32,0.00,,,0.00,,2013-07-27 11:12:00,
2013-07-27 11:22:00,61.0,31.0,-100.00,South,176,5.0,6.0,32,0.00,,,0.00,,2013-07-27 11:22:00,
2013-07-27 11:32:00,61.0,31.0,-100.00,South,176,5.0,6.0,32,0.00,,,0.00,,2013-07-27 11:32:00,
2013-07-27 11:42:00,63.0,30.0,-100.00,South,181,4.0,7.0,29,0.00,,,0.00,,2013-07-27 11:42:00,
2013-07-27 12:02:00,63.0,30.0,-100.00,South,181,4.0,7.0,29,0.00,,,0.00,,2013-07-27 12:02:00,
2013-07-27 12:12:00,63.0,30.0,-100.00,South,181,4.0,7.0,29,0.00,,,0.00,,2013-07-27 12:12:00,
2013-07-27 12:22:00,63.0,30.0,-100.00,South,181,4.0,7.0,29,0.00,,,0.00,,2013-07-27 12:22:00,
2013-07-27 12:33:00,63.0,30.0,-100.00,South,181,4.0,7.0,29,0.00,,,0.00,,2013-07-27 12:33:00,
2013-07-27 12:42:00,63.0,32.0,-100.00,South,177,5.0,9.0,31,0.00,,,0.00,,2013-07-27 12:42:00,
2013-07-27 13:12:00,63.0,32.0,-100.00,South,177,5.0,9.0,31,0.00,,,0.00,,2013-07-27 13:12:00,
2013-07-27 13:22:00,63.0,32.0,-100.00,South,177,5.0,9.0,31,0.00,,,0.00,,2013-07-27 13:22:00,
2013-07-27 13:32:00,63.0,32.0,-100.00,South,177,5.0,9.0,31,0.00,,,0.00,,2013-07-27 13:32:00,
2013-07-27 15:42:00,72.0,41.0,-100.00,South,169,7.0,14.0,33,0.00,,,0.00,,2013-07-27 15:42:00,
2013-07-27 16:33:00,72.0,41.0,-100.00,South,169,7.0,14.0,33,0.00,,,0.00,,2013-07-27 16:33:00,
2013-07-27 16:42:00,73.0,43.0,-100.00,South,177,7.0,17.0,34,0.00,,,0.00,,2013-07-27 16:42:00,
2013-07-27 17:12:00,73.0,43.0,-100.00,South,177,7.0,17.0,34,0.00,,,0.00,,2013-07-27 17:12:00,
2013-07-27 17:22:00,73.0,43.0,-100.00,South,177,7.0,17.0,34,0.00,,,0.00,,2013-07-27 17:22:00,
2013-07-27 17:32:00,73.0,43.0,-100.00,South,177,7.0,17.0,34,0.00,,,0.00,,2013-07-27 17:32:00,
2013-07-27 17:42:00,73.0,44.0,-100.00,SSW,206,6.0,15.0,35,0.00,,,0.00,,2013-07-27 17:42:00,
2013-07-27 18:12:00,73.0,44.0,-100.00,SSW,206,6.0,15.0,35,0.00,,,0.00,,2013-07-27 18:12:00,
2013-07-27 18:22:00,73.0,44.0,-100.00,SSW,206,6.0,15.0,35,0.00,,,0.00,,2013-07-27 18:22:00,
2013-07-27 18:33:00,73.0,44.0,-100.00,SSW,206,6.0,15.0,35,0.00,,,0.00,,2013-07-27 18:33:00,
2013-07-27 18:42:00,75.0,42.0,-100.00,South,175,6.0,14.0,31,0.00,,,0.00,,2013-07-27 18:42:00,
2013-07-27 19:12:00,75.0,42.0,-100.00,South,175,6.0,14.0,31,0.00,,,0.00,,2013-07-27 19:12:00,
2013-07-27 19:22:00,75.0,42.0,-100.00,South,175,6.0,14.0,31,0.00,,,0.00,,2013-07-27 19:22:00,
2013-07-27 19:32:00,75.0,42.0,-100.00,South,175,6.0,14.0,31,0.00,,,0.00,,2013-07-27 19:32:00,
2013-07-27 19:42:00,74.0,44.0,-100.00,South,188,4.0,11.0,34,0.00,,,0.00,,2013-07-27 19:42:00,
2013-07-27 20:12:00,74.0,44.0,-100.00,South,188,4.0,11.0,34,0.00,,,0.00,,2013-07-27 20:12:00,
2013-07-27 20:22:00,74.0,44.0,-100.00,South,188,4.0,11.0,34,0.00,,,0.00,,2013-07-27 20:22:00,
2013-07-27 20:32:00,74.0,44.0,-100.00,South,188,4.0,11.0,34,0.00,,,0.00,,2013-07-27 20:32:00,
2013-07-27 20:42:00,78.0,41.0,-100.00,SW,225,5.0,9.0,27,0.00,,,0.00,,2013-07-27 20:42:00,
2013-07-27 21:12:00,78.0,41.0,-100.00,SW,225,5.0,9.0,27,0.00,,,0.00,,2013-07-27 21:12:00,
2013-07-27 21:22:00,78.0,41.0,-100.00,SW,225,5.0,9.0,27,0.00,,,0.00,,2013-07-27 21:22:00,
2013-07-27 21:33:00,78.0,41.0,-100.00,SW,225,5.0,9.0,27,0.00,,,0.00,,2013-07-27 21:33:00,
2013-07-27 21:42:00,68.0,42.0,-100.00,South,170,6.0,15.0,39,0.00,,,0.00,,2013-07-27 21:42:00,
2013-07-27 22:12:00,68.0,42.0,-100.00,South,170,6.0,15.0,39,0.00,,,0.00,,2013-07-27 22:12:00,
2013-07-27 22:22:00,68.0,42.0,-100.00,South,170,6.0,15.0,39,0.00,,,0.00,,2013-07-27 22:22:00,
2013-07-27 22:32:00,68.0,42.0,-100.00,South,170,6.0,15.0,39,0.00,,,0.00,,2013-07-27 22:32:00,
2013-07-27 22:42:00,63.0,47.0,-100.00,WNW,295,5.0,10.0,56,0.02,,,0.02,,2013-07-27 22:42:00,
2013-07-27 23:12:00,63.0,47.0,-100.00,WNW,295,5.0,10.0,56,0.02,,,0.02,,2013-07-27 23:12:00,
2013-07-27 23:22:00,63.0,47.0,-100.00,WNW,295,5.0,10.0,56,0.02,,,0.02,,2013-07-27 23:22:00,
2013-07-27 23:32:00,63.0,47.0,-100.00,WNW,295,5.0,10.0,56,0.02,,,0.02,,2013-07-27 23:32:00,
2013-07-27 23:42:00,58.0,50.0,-100.00,SSW,196,4.0,8.0,75,0.01,,,0.03,,2013-07-27 23:42:00,